Woodhull, Illinois
Current Conditions -  °F | °C
As of 8:15 AM on Saturday 20 Dec 2014 (Local Time) from KGBG Reporting Station
Haze Haze  
Wind Chill: 29°   Ceiling: 4000
Heat Index: 29°   Visibility: 5mi
Dew Point: 26°   Wind: 3mph
Humidity: 89%   Direction: 120°ESE
Pressure: 30.24"   Gusts: NA
Location:  41.18°N, 90.32°W
Report Text: KGBG 201415Z AUTO 12003KT 5SM BR BKN040 OVC060 M02/M03 A3024 RMK AO2 T10161032
Loading
Personal Weather Stations






























Interactive Weather Map New forecast layout! Learn more

10-Day Weather Forecast

Advertisements
Track Severe Weather on mobile